FZAA/FIH METAR and TAF weather

Enter ICAO airport designator
Station Type Date Time Source
FZAA METAR 2021/04/17 01:00 UTC NOAA

FZAA 170100Z 00000KT 7000 FEW016 BKN090 24/22 Q1011 NOSIG


Station Type Date Time Source
FZAA Decoded METAR 2021/04/17 01:00 UTC NOAA

Kinshasa / N'Djili, Congo, Democratic Republic of the (FZAA) 04-23S 015-26E 312M
Apr 16, 2021 - 09:00 PM EDT / 2021.04.17 0100 UTC
Wind: Calm:0
Visibility: 4 mile(s):0
Sky conditions: mostly cloudy
Temperature: 75 F (24 C)
Dew Point: 71 F (22 C)
Relative Humidity: 88%
Pressure (altimeter): 29.85 in. Hg (1011 hPa)
ob: FZAA 170100Z 00000KT 7000 FEW016 BKN090 24/22 Q1011 NOSIG
cycle: 1

Station Type Date Time Source
FZAA TAF 2021/04/16 18:57 UTC NOAA

TAF TAF FZAA 161700Z 1618/1724 18004KT 7000 FEW020 FEW028CB
BECMG 1701/1703 SCT016
BECMG 1711/1713 31012KT SCT024 FEW030CB PROB30
TEMPO 1715/1719 TS

Example: see airport list